Terminal Aerodrome Forecast
Issued by NWS

Home | Current Version | Previous Version | Text Only | Print | Product List | Glossary On
Versions: 1 2 3 4 5 6 7 8 9 10 11 12 13
000
FTUS46 KSGX 290520
TAFSNA
TAF
KSNA 290520Z 2906/3006 VRB04KT P6SM SKC
     FM291100 VRB03KT 3SM BR BKN005
     FM291530 VRB04KT P6SM FEW008
     FM291900 22011KT P6SM SKC
     FM300200 VRB05KT P6SM FEW010=

USA.gov is the U.S. government's official web portal to all federal, state and local government web resources and services.